sensor_id;sensor_type;location;lat;lon;timestamp;pressure;altitude;pressure_sealevel;temperature;humidity
57894;BME280;43710;47.460;19.034;2023-04-26T04:02:56;100019.34;;;10.55;63.45
57894;BME280;43710;47.460;19.034;2023-04-26T04:06:00;100019.34;;;10.55;63.45
57894;BME280;43710;47.460;19.034;2023-04-26T04:09:03;100028.38;;;9.92;63.67
57894;BME280;43710;47.460;19.034;2023-04-26T04:12:09;100032.22;;;10.10;63.79
57894;BME280;43710;47.460;19.034;2023-04-26T04:15:11;100041.19;;;10.19;63.78
57894;BME280;43710;47.460;19.034;2023-04-26T04:18:15;100043.38;;;10.17;64.41
57894;BME280;43710;47.460;19.034;2023-04-26T04:21:18;100031.38;;;10.09;62.08
57894;BME280;43710;47.460;19.034;2023-04-26T04:24:20;100039.59;;;10.18;64.67
57894;BME280;43710;47.460;19.034;2023-04-26T04:27:22;100030.59;;;10.09;63.12
57894;BME280;43710;47.460;19.034;2023-04-26T04:30:25;100035.56;;;10.21;63.50
57894;BME280;43710;47.460;19.034;2023-04-26T04:33:27;100056.12;;;10.25;62.11
57894;BME280;43710;47.460;19.034;2023-04-26T04:36:30;100059.09;;;10.24;62.83
57894;BME280;43710;47.460;19.034;2023-04-26T04:39:33;100063.34;;;10.30;62.09
57894;BME280;43710;47.460;19.034;2023-04-26T04:42:35;100072.75;;;10.27;61.28
57894;BME280;43710;47.460;19.034;2023-04-26T04:45:38;100079.12;;;10.31;61.58
57894;BME280;43710;47.460;19.034;2023-04-26T04:48:41;100081.34;;;10.48;62.40
57894;BME280;43710;47.460;19.034;2023-04-26T04:51:43;100094.25;;;10.46;60.65
57894;BME280;43710;47.460;19.034;2023-04-26T04:54:46;100084.41;;;10.61;62.18
57894;BME280;43710;47.460;19.034;2023-04-26T04:57:50;100088.84;;;10.70;62.30
57894;BME280;43710;47.460;19.034;2023-04-26T05:00:54;100101.87;;;10.58;60.38
57894;BME280;43710;47.460;19.034;2023-04-26T05:03:57;100105.28;;;10.40;61.63
57894;BME280;43710;47.460;19.034;2023-04-26T05:07:00;100106.69;;;10.56;62.29
57894;BME280;43710;47.460;19.034;2023-04-26T05:10:03;100112.63;;;10.29;60.36
57894;BME280;43710;47.460;19.034;2023-04-26T05:13:06;100119.53;;;10.35;61.73
57894;BME280;43710;47.460;19.034;2023-04-26T05:16:08;100108.31;;;10.33;62.01
57894;BME280;43710;47.460;19.034;2023-04-26T05:19:11;100105.44;;;10.24;60.39
57894;BME280;43710;47.460;19.034;2023-04-26T05:22:15;100112.44;;;10.20;60.85
57894;BME280;43710;47.460;19.034;2023-04-26T05:25:20;100118.03;;;10.24;60.70
57894;BME280;43710;47.460;19.034;2023-04-26T05:28:24;100119.03;;;10.33;61.57
57894;BME280;43710;47.460;19.034;2023-04-26T05:31:26;100118.13;;;10.43;58.45
57894;BME280;43710;47.460;19.034;2023-04-26T05:34:29;100126.00;;;10.34;60.74
57894;BME280;43710;47.460;19.034;2023-04-26T05:37:32;100124.09;;;10.34;58.70
57894;BME280;43710;47.460;19.034;2023-04-26T05:40:34;100133.56;;;10.27;56.90
57894;BME280;43710;47.460;19.034;2023-04-26T05:43:37;100127.91;;;10.28;56.70
57894;BME280;43710;47.460;19.034;2023-04-26T05:46:40;100137.34;;;10.50;56.85
57894;BME280;43710;47.460;19.034;2023-04-26T05:49:42;100142.16;;;10.53;55.96
57894;BME280;43710;47.460;19.034;2023-04-26T05:52:45;100143.22;;;10.52;55.45
57894;BME280;43710;47.460;19.034;2023-04-26T05:55:48;100142.97;;;10.72;55.62
57894;BME280;43710;47.460;19.034;2023-04-26T05:58:51;100149.53;;;10.85;57.41
57894;BME280;43710;47.460;19.034;2023-04-26T06:01:54;100151.44;;;11.03;54.69
57894;BME280;43710;47.460;19.034;2023-04-26T06:04:57;100151.09;;;11.10;53.02
57894;BME280;43710;47.460;19.034;2023-04-26T06:08:00;100156.72;;;11.09;56.13
57894;BME280;43710;47.460;19.034;2023-04-26T06:11:03;100163.06;;;11.18;52.64
57894;BME280;43710;47.460;19.034;2023-04-26T06:14:05;100153.34;;;11.03;52.63
57894;BME280;43710;47.460;19.034;2023-04-26T06:17:13;100174.28;;;11.01;52.70
57894;BME280;43710;47.460;19.034;2023-04-26T06:20:16;100171.81;;;11.04;52.78
57894;BME280;43710;47.460;19.034;2023-04-26T06:23:19;100168.91;;;11.01;51.49
57894;BME280;43710;47.460;19.034;2023-04-26T06:26:21;100178.94;;;11.14;50.58
57894;BME280;43710;47.460;19.034;2023-04-26T06:29:24;100183.34;;;11.05;50.15
57894;BME280;43710;47.460;19.034;2023-04-26T06:32:27;100171.59;;;11.01;50.30
57894;BME280;43710;47.460;19.034;2023-04-26T06:35:29;100177.78;;;11.39;63.29
57894;BME280;43710;47.460;19.034;2023-04-26T06:38:32;100170.88;;;11.52;52.86
57894;BME280;43710;47.460;19.034;2023-04-26T06:41:35;100168.44;;;11.56;50.23
57894;BME280;43710;47.460;19.034;2023-04-26T06:44:37;100173.44;;;11.43;50.95
57894;BME280;43710;47.460;19.034;2023-04-26T06:47:39;100167.19;;;11.29;50.37
57894;BME280;43710;47.460;19.034;2023-04-26T06:50:42;100175.38;;;11.38;50.54
57894;BME280;43710;47.460;19.034;2023-04-26T06:53:44;100181.50;;;11.43;49.67
57894;BME280;43710;47.460;19.034;2023-04-26T06:56:46;100180.03;;;11.70;49.09
57894;BME280;43710;47.460;19.034;2023-04-26T06:59:49;100173.84;;;11.69;49.30
57894;BME280;43710;47.460;19.034;2023-04-26T07:02:52;100180.38;;;11.82;49.25
57894;BME280;43710;47.460;19.034;2023-04-26T07:05:57;100190.59;;;11.99;48.80
57894;BME280;43710;47.460;19.034;2023-04-26T07:09:01;100186.59;;;11.77;49.39
57894;BME280;43710;47.460;19.034;2023-04-26T07:12:04;100179.50;;;11.87;53.85
57894;BME280;43710;47.460;19.034;2023-04-26T07:15:07;100179.50;;;11.87;50.30
57894;BME280;43710;47.460;19.034;2023-04-26T07:18:09;100184.00;;;11.91;47.87
57894;BME280;43710;47.460;19.034;2023-04-26T07:21:12;100189.13;;;12.07;50.35
57894;BME280;43710;47.460;19.034;2023-04-26T07:24:14;100188.38;;;12.20;50.21
57894;BME280;43710;47.460;19.034;2023-04-26T07:27:16;100201.84;;;12.01;46.70
57894;BME280;43710;47.460;19.034;2023-04-26T07:30:19;100194.47;;;11.93;47.85
57894;BME280;43710;47.460;19.034;2023-04-26T07:33:21;100216.31;;;11.86;45.24
57894;BME280;43710;47.460;19.034;2023-04-26T07:36:24;100221.16;;;11.65;43.63
57894;BME280;43710;47.460;19.034;2023-04-26T07:39:26;100203.97;;;11.66;42.63
57894;BME280;43710;47.460;19.034;2023-04-26T07:42:29;100215.66;;;11.94;45.19
57894;BME280;43710;47.460;19.034;2023-04-26T07:45:31;100233.59;;;12.32;46.52
57894;BME280;43710;47.460;19.034;2023-04-26T07:48:34;100236.28;;;11.99;44.33
57894;BME280;43710;47.460;19.034;2023-04-26T07:51:36;100240.03;;;11.79;41.49
57894;BME280;43710;47.460;19.034;2023-04-26T07:54:38;100229.19;;;11.89;42.96
57894;BME280;43710;47.460;19.034;2023-04-26T07:57:41;100225.00;;;11.97;45.77
57894;BME280;43710;47.460;19.034;2023-04-26T08:00:45;100236.25;;;11.80;41.35
57894;BME280;43710;47.460;19.034;2023-04-26T08:03:48;100233.78;;;11.84;43.30
57894;BME280;43710;47.460;19.034;2023-04-26T08:06:51;100237.44;;;11.93;45.79
57894;BME280;43710;47.460;19.034;2023-04-26T08:09:53;100237.88;;;12.00;43.25
57894;BME280;43710;47.460;19.034;2023-04-26T08:12:55;100246.28;;;12.12;42.46
57894;BME280;43710;47.460;19.034;2023-04-26T08:15:58;100242.34;;;12.05;43.97
57894;BME280;43710;47.460;19.034;2023-04-26T08:19:00;100240.75;;;12.04;43.53
57894;BME280;43710;47.460;19.034;2023-04-26T08:22:04;100238.69;;;12.14;43.47
57894;BME280;43710;47.460;19.034;2023-04-26T08:25:07;100251.53;;;12.36;44.33
57894;BME280;43710;47.460;19.034;2023-04-26T08:28:10;100247.44;;;12.39;41.72
57894;BME280;43710;47.460;19.034;2023-04-26T08:31:15;100249.00;;;12.26;41.46
57894;BME280;43710;47.460;19.034;2023-04-26T08:34:19;100251.09;;;12.29;41.53
57894;BME280;43710;47.460;19.034;2023-04-26T08:37:21;100258.25;;;12.01;41.23
57894;BME280;43710;47.460;19.034;2023-04-26T08:40:24;100242.84;;;12.26;46.27
57894;BME280;43710;47.460;19.034;2023-04-26T08:43:27;100251.31;;;12.33;40.57
57894;BME280;43710;47.460;19.034;2023-04-26T08:46:35;100246.94;;;12.37;41.36
57894;BME280;43710;47.460;19.034;2023-04-26T08:49:43;100254.00;;;12.33;41.19
57894;BME280;43710;47.460;19.034;2023-04-26T08:52:47;100246.87;;;12.42;38.94
57894;BME280;43710;47.460;19.034;2023-04-26T08:55:51;100260.84;;;12.25;39.45
57894;BME280;43710;47.460;19.034;2023-04-26T08:58:54;100267.47;;;12.46;43.81
57894;BME280;43710;47.460;19.034;2023-04-26T09:01:57;100266.91;;;12.63;39.45
57894;BME280;43710;47.460;19.034;2023-04-26T09:05:01;100271.50;;;12.77;39.25
57894;BME280;43710;47.460;19.034;2023-04-26T09:08:05;100272.59;;;12.62;38.46
57894;BME280;43710;47.460;19.034;2023-04-26T09:11:08;100271.09;;;12.69;43.84
57894;BME280;43710;47.460;19.034;2023-04-26T09:14:10;100269.59;;;12.63;40.74
57894;BME280;43710;47.460;19.034;2023-04-26T09:17:26;100264.91;;;12.55;40.82
57894;BME280;43710;47.460;19.034;2023-04-26T09:20:30;100255.78;;;12.84;52.04
57894;BME280;43710;47.460;19.034;2023-04-26T09:23:33;100278.81;;;13.04;41.62
57894;BME280;43710;47.460;19.034;2023-04-26T09:26:36;100267.50;;;12.74;38.96
57894;BME280;43710;47.460;19.034;2023-04-26T09:29:38;100267.63;;;12.83;42.32
57894;BME280;43710;47.460;19.034;2023-04-26T09:33:01;100270.59;;;12.81;41.66
57894;BME280;43710;47.460;19.034;2023-04-26T09:36:11;100264.53;;;13.17;42.61
57894;BME280;43710;47.460;19.034;2023-04-26T09:39:36;100250.91;;;13.27;49.05
57894;BME280;43710;47.460;19.034;2023-04-26T09:42:39;100272.62;;;13.17;39.15
57894;BME280;43710;47.460;19.034;2023-04-26T09:45:45;100260.97;;;13.08;37.59
57894;BME280;43710;47.460;19.034;2023-04-26T09:48:59;100275.31;;;12.76;41.29
57894;BME280;43710;47.460;19.034;2023-04-26T09:52:04;100272.44;;;13.00;43.36
57894;BME280;43710;47.460;19.034;2023-04-26T09:55:07;100276.03;;;13.09;41.22
57894;BME280;43710;47.460;19.034;2023-04-26T09:58:11;100265.97;;;13.14;49.05
57894;BME280;43710;47.460;19.034;2023-04-26T10:01:14;100267.63;;;13.10;39.47
57894;BME280;43710;47.460;19.034;2023-04-26T10:04:18;100260.97;;;13.08;38.96
57894;BME280;43710;47.460;19.034;2023-04-26T10:07:22;100252.09;;;13.21;41.62
57894;BME280;43710;47.460;19.034;2023-04-26T10:10:25;100269.94;;;13.31;38.01
57894;BME280;43710;47.460;19.034;2023-04-26T10:13:28;100264.78;;;13.34;38.23
57894;BME280;43710;47.460;19.034;2023-04-26T10:16:32;100264.37;;;13.27;36.77
57894;BME280;43710;47.460;19.034;2023-04-26T10:19:36;100252.78;;;13.40;37.28
57894;BME280;43710;47.460;19.034;2023-04-26T10:22:43;100261.06;;;13.44;37.24
57894;BME280;43710;47.460;19.034;2023-04-26T10:25:46;100260.97;;;13.22;36.16
57894;BME280;43710;47.460;19.034;2023-04-26T10:32:09;100262.03;;;13.21;35.88
57894;BME280;43710;47.460;19.034;2023-04-26T10:35:12;100277.00;;;13.40;37.18
57894;BME280;43710;47.460;19.034;2023-04-26T10:38:14;100256.38;;;13.22;34.36
57894;BME280;43710;47.460;19.034;2023-04-26T10:44:40;100299.41;;;12.94;34.89
57894;BME280;43710;47.460;19.034;2023-04-26T10:47:43;100282.19;;;13.09;39.64
57894;BME280;43710;47.460;19.034;2023-04-26T10:54:02;100272.03;;;13.20;35.19
57894;BME280;43710;47.460;19.034;2023-04-26T10:57:05;100256.88;;;13.24;36.46
57894;BME280;43710;47.460;19.034;2023-04-26T11:03:14;100256.78;;;13.43;35.96
57894;BME280;43710;47.460;19.034;2023-04-26T11:06:17;100272.81;;;13.21;36.81
57894;BME280;43710;47.460;19.034;2023-04-26T11:09:33;100287.84;;;12.80;36.50
57894;BME280;43710;47.460;19.034;2023-04-26T11:12:41;100268.03;;;12.76;39.37
57894;BME280;43710;47.460;19.034;2023-04-26T11:15:43;100292.25;;;12.76;37.47
57894;BME280;43710;47.460;19.034;2023-04-26T11:18:46;100269.81;;;12.81;35.68
57894;BME280;43710;47.460;19.034;2023-04-26T11:21:48;100272.41;;;12.86;36.48
57894;BME280;43710;47.460;19.034;2023-04-26T11:24:52;100276.81;;;13.09;34.73
57894;BME280;43710;47.460;19.034;2023-04-26T11:28:01;100263.03;;;13.11;35.48
57894;BME280;43710;47.460;19.034;2023-04-26T11:31:05;100260.78;;;13.18;36.04
57894;BME280;43710;47.460;19.034;2023-04-26T11:34:08;100267.84;;;13.14;36.33
57894;BME280;43710;47.460;19.034;2023-04-26T11:37:10;100266.66;;;13.06;34.73
57894;BME280;43710;47.460;19.034;2023-04-26T11:40:14;100270.72;;;13.04;34.66
57894;BME280;43710;47.460;19.034;2023-04-26T11:43:18;100285.69;;;12.96;35.29
57894;BME280;43710;47.460;19.034;2023-04-26T11:46:21;100278.00;;;13.03;37.96
57894;BME280;43710;47.460;19.034;2023-04-26T11:49:25;100272.03;;;13.34;37.25
57894;BME280;43710;47.460;19.034;2023-04-26T11:52:28;100282.50;;;13.22;34.13
57894;BME280;43710;47.460;19.034;2023-04-26T11:55:32;100269.44;;;13.43;38.38
57894;BME280;43710;47.460;19.034;2023-04-26T11:58:36;100270.94;;;13.21;34.79
57894;BME280;43710;47.460;19.034;2023-04-26T12:01:39;100272.13;;;13.01;35.14
57894;BME280;43710;47.460;19.034;2023-04-26T12:04:41;100279.41;;;13.14;36.79
57894;BME280;43710;47.460;19.034;2023-04-26T12:07:48;100276.22;;;13.12;38.48
57894;BME280;43710;47.460;19.034;2023-04-26T12:10:52;100280.41;;;13.46;36.25
57894;BME280;43710;47.460;19.034;2023-04-26T12:13:57;100269.62;;;13.46;35.22
57894;BME280;43710;47.460;19.034;2023-04-26T12:17:00;100267.50;;;13.57;35.95
57894;BME280;43710;47.460;19.034;2023-04-26T12:20:09;100267.00;;;13.69;40.95
57894;BME280;43710;47.460;19.034;2023-04-26T12:23:14;100257.09;;;13.78;36.96
57894;BME280;43710;47.460;19.034;2023-04-26T12:26:17;100269.72;;;13.55;36.60
57894;BME280;43710;47.460;19.034;2023-04-26T12:29:21;100275.91;;;13.55;37.39
57894;BME280;43710;47.460;19.034;2023-04-26T12:32:24;100273.31;;;13.50;35.51
57894;BME280;43710;47.460;19.034;2023-04-26T12:35:26;100268.94;;;13.40;36.46
57894;BME280;43710;47.460;19.034;2023-04-26T12:38:28;100282.31;;;13.46;38.18
57894;BME280;43710;47.460;19.034;2023-04-26T12:41:31;100283.41;;;13.45;34.81
57894;BME280;43710;47.460;19.034;2023-04-26T12:44:33;100297.28;;;13.38;35.41
57894;BME280;43710;47.460;19.034;2023-04-26T12:47:36;100284.81;;;13.14;33.65
57894;BME280;43710;47.460;19.034;2023-04-26T12:50:38;100290.97;;;13.15;34.46
57894;BME280;43710;47.460;19.034;2023-04-26T12:53:43;100281.81;;;13.16;34.56
57894;BME280;43710;47.460;19.034;2023-04-26T12:56:45;100282.19;;;13.09;35.58
57894;BME280;43710;47.460;19.034;2023-04-26T12:59:47;100319.38;;;13.07;37.52
57894;BME280;43710;47.460;19.034;2023-04-26T13:02:49;100306.69;;;12.94;35.74
57894;BME280;43710;47.460;19.034;2023-04-26T13:05:53;100299.44;;;13.08;40.04
57894;BME280;43710;47.460;19.034;2023-04-26T13:08:55;100298.25;;;13.14;37.72
57894;BME280;43710;47.460;19.034;2023-04-26T13:11:58;100299.13;;;13.24;37.53
57894;BME280;43710;47.460;19.034;2023-04-26T13:15:01;100310.50;;;13.07;36.12
57894;BME280;43710;47.460;19.034;2023-04-26T13:18:04;100301.22;;;12.99;36.05
57894;BME280;43710;47.460;19.034;2023-04-26T13:21:07;100294.94;;;13.04;36.74
57894;BME280;43710;47.460;19.034;2023-04-26T13:24:10;100299.66;;;13.12;36.69
57894;BME280;43710;47.460;19.034;2023-04-26T13:27:12;100296.44;;;13.24;35.63
57894;BME280;43710;47.460;19.034;2023-04-26T13:30:14;100308.63;;;13.21;36.87
57894;BME280;43710;47.460;19.034;2023-04-26T13:33:16;100326.75;;;13.15;35.23
57894;BME280;43710;47.460;19.034;2023-04-26T13:36:21;100323.88;;;12.98;34.65
57894;BME280;43710;47.460;19.034;2023-04-26T13:39:24;100323.75;;;12.89;36.08
57894;BME280;43710;47.460;19.034;2023-04-26T13:42:27;100325.25;;;13.09;35.63
57894;BME280;43710;47.460;19.034;2023-04-26T13:45:29;100324.56;;;13.17;34.91
57894;BME280;43710;47.460;19.034;2023-04-26T13:48:31;100330.06;;;13.12;34.05
57894;BME280;43710;47.460;19.034;2023-04-26T13:51:34;100317.72;;;13.25;34.11
57894;BME280;43710;47.460;19.034;2023-04-26T13:54:37;100314.44;;;13.28;32.76
57894;BME280;43710;47.460;19.034;2023-04-26T13:57:41;100326.69;;;13.48;35.03
57894;BME280;43710;47.460;19.034;2023-04-26T14:00:43;100334.16;;;13.37;34.27
57894;BME280;43710;47.460;19.034;2023-04-26T14:03:46;100331.44;;;13.10;34.73
57894;BME280;43710;47.460;19.034;2023-04-26T14:06:48;100335.94;;;13.14;35.25
57894;BME280;43710;47.460;19.034;2023-04-26T14:09:50;100339.22;;;13.11;35.52
57894;BME280;43710;47.460;19.034;2023-04-26T14:12:53;100341.81;;;13.16;36.24
57894;BME280;43710;47.460;19.034;2023-04-26T14:15:59;100335.94;;;13.14;36.24
57894;BME280;43710;47.460;19.034;2023-04-26T14:19:01;100334.12;;;12.96;34.82
57894;BME280;43710;47.460;19.034;2023-04-26T14:22:03;100334.88;;;12.83;35.44
57894;BME280;43710;47.460;19.034;2023-04-26T14:25:06;100336.59;;;12.92;36.50
57894;BME280;43710;47.460;19.034;2023-04-26T14:28:08;100339.69;;;13.00;36.75
57894;BME280;43710;47.460;19.034;2023-04-26T14:31:10;100340.00;;;12.98;35.03
57894;BME280;43710;47.460;19.034;2023-04-26T14:34:13;100324.41;;;13.28;35.26
57894;BME280;43710;47.460;19.034;2023-04-26T14:37:16;100324.06;;;13.57;36.21
57894;BME280;43710;47.460;19.034;2023-04-26T14:40:18;100323.94;;;13.76;36.31
57894;BME280;43710;47.460;19.034;2023-04-26T14:43:21;100337.94;;;13.50;33.84
57894;BME280;43710;47.460;19.034;2023-04-26T14:46:23;100332.37;;;13.33;34.13
57894;BME280;43710;47.460;19.034;2023-04-26T14:49:25;100336.13;;;13.18;34.15
57894;BME280;43710;47.460;19.034;2023-04-26T14:52:28;100327.31;;;13.31;39.68
57894;BME280;43710;47.460;19.034;2023-04-26T14:55:30;100333.16;;;13.47;35.39
57894;BME280;43710;47.460;19.034;2023-04-26T14:58:33;100339.47;;;13.29;37.14
57894;BME280;43710;47.460;19.034;2023-04-26T15:01:35;100350.94;;;13.34;38.39
57894;BME280;43710;47.460;19.034;2023-04-26T15:04:38;100342.37;;;13.00;35.90
57894;BME280;43710;47.460;19.034;2023-04-26T15:07:41;100347.19;;;13.03;36.13
57894;BME280;43710;47.460;19.034;2023-04-26T15:10:44;100354.31;;;12.80;35.42
57894;BME280;43710;47.460;19.034;2023-04-26T15:13:46;100367.62;;;12.71;37.54
57894;BME280;43710;47.460;19.034;2023-04-26T15:16:48;100359.28;;;12.73;35.25
